sensor_id;sensor_type;location;lat;lon;timestamp;pressure;altitude;pressure_sealevel;temperature;humidity
9009;BME280;62813;51.424;6.762;2023-06-19T00:01:28;100520.38;;;24.56;45.18
9009;BME280;62813;51.424;6.762;2023-06-19T00:04:04;100501.09;;;24.54;45.16
9009;BME280;62813;51.424;6.762;2023-06-19T00:06:31;100498.16;;;24.62;45.13
9009;BME280;62813;51.424;6.762;2023-06-19T00:08:58;100503.06;;;24.57;45.49
9009;BME280;62813;51.424;6.762;2023-06-19T00:11:25;100513.25;;;24.44;45.78
9009;BME280;62813;51.424;6.762;2023-06-19T00:13:54;100502.47;;;24.44;45.84
9009;BME280;62813;51.424;6.762;2023-06-19T00:16:25;100501.88;;;24.54;45.49
9009;BME280;62813;51.424;6.762;2023-06-19T00:18:52;100513.00;;;24.52;45.73
9009;BME280;62813;51.424;6.762;2023-06-19T00:21:23;100515.69;;;24.52;45.81
9009;BME280;62813;51.424;6.762;2023-06-19T00:23:58;100507.16;;;24.47;45.73
9009;BME280;62813;51.424;6.762;2023-06-19T00:26:25;100518.28;;;24.45;45.81
9009;BME280;62813;51.424;6.762;2023-06-19T00:28:52;100510.09;;;24.38;46.20
9009;BME280;62813;51.424;6.762;2023-06-19T00:31:23;100514.63;;;24.34;46.34
9009;BME280;62813;51.424;6.762;2023-06-19T00:33:50;100514.63;;;24.34;46.53
9009;BME280;62813;51.424;6.762;2023-06-19T00:36:17;100521.44;;;24.28;46.63
9009;BME280;62813;51.424;6.762;2023-06-19T00:38:47;100517.19;;;24.27;46.89
9009;BME280;62813;51.424;6.762;2023-06-19T00:41:17;100514.16;;;24.29;47.00
9009;BME280;62813;51.424;6.762;2023-06-19T00:43:44;100523.66;;;24.23;46.55
9009;BME280;62813;51.424;6.762;2023-06-19T00:46:14;100524.22;;;24.12;47.24
9009;BME280;62813;51.424;6.762;2023-06-19T00:48:41;100529.06;;;24.23;46.55
9009;BME280;62813;51.424;6.762;2023-06-19T00:51:08;100526.22;;;24.16;46.77
9009;BME280;62813;51.424;6.762;2023-06-19T00:53:35;100545.88;;;24.20;46.65
9009;BME280;62813;51.424;6.762;2023-06-19T00:56:03;100544.13;;;24.08;47.51
9009;BME280;62813;51.424;6.762;2023-06-19T00:58:30;100546.88;;;24.11;47.02
9009;BME280;62813;51.424;6.762;2023-06-19T01:00:57;100545.50;;;23.98;47.59
9009;BME280;62813;51.424;6.762;2023-06-19T01:03:34;100538.25;;;24.02;47.50
9009;BME280;62813;51.424;6.762;2023-06-19T01:06:08;100540.38;;;23.93;47.85
9009;BME280;62813;51.424;6.762;2023-06-19T01:09:10;100546.91;;;23.92;47.86
9009;BME280;62813;51.424;6.762;2023-06-19T01:11:47;100558.44;;;23.93;47.91
9009;BME280;62813;51.424;6.762;2023-06-19T01:14:23;100548.81;;;23.92;47.91
9009;BME280;62813;51.424;6.762;2023-06-19T01:16:52;100549.81;;;23.84;48.19
9009;BME280;62813;51.424;6.762;2023-06-19T01:19:19;100548.47;;;23.74;48.40
9009;BME280;62813;51.424;6.762;2023-06-19T01:21:48;100549.19;;;23.71;48.63
9009;BME280;62813;51.424;6.762;2023-06-19T01:24:16;100548.84;;;23.72;48.35
9009;BME280;62813;51.424;6.762;2023-06-19T01:26:43;100542.38;;;23.77;48.57
9009;BME280;62813;51.424;6.762;2023-06-19T01:29:16;100541.91;;;23.71;48.62
9009;BME280;62813;51.424;6.762;2023-06-19T01:31:52;100543.38;;;23.69;48.80
9009;BME280;62813;51.424;6.762;2023-06-19T01:34:21;100544.84;;;23.66;48.74
9009;BME280;62813;51.424;6.762;2023-06-19T01:36:49;100540.25;;;23.67;49.03
9009;BME280;62813;51.424;6.762;2023-06-19T01:39:18;100527.38;;;23.57;49.43
9009;BME280;62813;51.424;6.762;2023-06-19T01:41:46;100532.34;;;23.55;49.65
9009;BME280;62813;51.424;6.762;2023-06-19T01:44:13;100530.69;;;23.50;49.47
9009;BME280;62813;51.424;6.762;2023-06-19T01:46:51;100551.88;;;23.52;49.27
9009;BME280;62813;51.424;6.762;2023-06-19T01:49:43;100537.53;;;23.48;49.93
9009;BME280;62813;51.424;6.762;2023-06-19T01:52:12;100536.34;;;23.45;49.30
9009;BME280;62813;51.424;6.762;2023-06-19T01:54:40;100540.34;;;23.35;50.02
9009;BME280;62813;51.424;6.762;2023-06-19T01:57:07;100538.28;;;23.29;50.34
9009;BME280;62813;51.424;6.762;2023-06-19T01:59:34;100540.97;;;23.29;50.38
9009;BME280;62813;51.424;6.762;2023-06-19T02:02:07;100550.63;;;23.30;50.27
9009;BME280;62813;51.424;6.762;2023-06-19T02:04:47;100559.53;;;23.34;50.25
9009;BME280;62813;51.424;6.762;2023-06-19T02:07:40;100555.34;;;23.36;50.17
9009;BME280;62813;51.424;6.762;2023-06-19T02:10:13;100578.84;;;23.39;49.96
9009;BME280;62813;51.424;6.762;2023-06-19T02:12:40;100554.94;;;23.34;50.15
9009;BME280;62813;51.424;6.762;2023-06-19T02:15:18;100567.53;;;23.30;50.50
9009;BME280;62813;51.424;6.762;2023-06-19T02:18:03;100555.28;;;23.33;50.12
9009;BME280;62813;51.424;6.762;2023-06-19T02:20:49;100574.44;;;23.31;49.99
9009;BME280;62813;51.424;6.762;2023-06-19T02:23:23;100582.50;;;23.31;50.19
9009;BME280;62813;51.424;6.762;2023-06-19T02:25:53;100580.25;;;23.33;50.28
9009;BME280;62813;51.424;6.762;2023-06-19T02:28:20;100593.06;;;23.40;50.02
9009;BME280;62813;51.424;6.762;2023-06-19T02:30:50;100596.28;;;23.46;50.15
9009;BME280;62813;51.424;6.762;2023-06-19T02:33:17;100595.34;;;23.54;50.02
9009;BME280;62813;51.424;6.762;2023-06-19T02:35:44;100589.53;;;23.52;50.24
9009;BME280;62813;51.424;6.762;2023-06-19T02:38:11;100622.50;;;23.49;50.59
9009;BME280;62813;51.424;6.762;2023-06-19T02:40:41;100613.81;;;23.55;50.56
9009;BME280;62813;51.424;6.762;2023-06-19T02:43:08;100613.03;;;23.55;50.68
9009;BME280;62813;51.424;6.762;2023-06-19T02:45:34;100619.19;;;23.55;50.94
9009;BME280;62813;51.424;6.762;2023-06-19T02:48:01;100621.25;;;23.62;50.78
9009;BME280;62813;51.424;6.762;2023-06-19T02:50:29;100633.94;;;23.61;51.21
9009;BME280;62813;51.424;6.762;2023-06-19T02:52:56;100638.03;;;23.55;50.91
9009;BME280;62813;51.424;6.762;2023-06-19T02:55:23;100634.91;;;23.53;51.17
9009;BME280;62813;51.424;6.762;2023-06-19T02:57:49;100651.97;;;23.61;51.06
9009;BME280;62813;51.424;6.762;2023-06-19T03:00:16;100630.47;;;23.45;51.41
9009;BME280;62813;51.424;6.762;2023-06-19T03:02:45;100638.72;;;23.36;51.48
9009;BME280;62813;51.424;6.762;2023-06-19T03:05:12;100645.13;;;23.32;51.99
9009;BME280;62813;51.424;6.762;2023-06-19T03:07:41;100644.78;;;23.33;51.79
9009;BME280;62813;51.424;6.762;2023-06-19T03:10:08;100632.38;;;23.45;51.49
9009;BME280;62813;51.424;6.762;2023-06-19T03:12:35;100645.06;;;23.28;51.66
9009;BME280;62813;51.424;6.762;2023-06-19T03:15:02;100642.38;;;23.28;51.67
9009;BME280;62813;51.424;6.762;2023-06-19T03:17:29;100642.81;;;23.30;51.88
9009;BME280;62813;51.424;6.762;2023-06-19T03:19:55;100639.00;;;23.16;52.36
9009;BME280;62813;51.424;6.762;2023-06-19T03:22:23;100638.59;;;23.14;52.69
9009;BME280;62813;51.424;6.762;2023-06-19T03:24:49;100648.28;;;23.18;52.36
9009;BME280;62813;51.424;6.762;2023-06-19T03:27:16;100649.69;;;23.12;52.63
9009;BME280;62813;51.424;6.762;2023-06-19T03:29:43;100651.59;;;23.12;52.60
9009;BME280;62813;51.424;6.762;2023-06-19T03:32:09;100653.94;;;23.13;52.73
9009;BME280;62813;51.424;6.762;2023-06-19T03:34:36;100662.25;;;23.08;52.90
9009;BME280;62813;51.424;6.762;2023-06-19T03:37:03;100670.81;;;22.98;53.44
9009;BME280;62813;51.424;6.762;2023-06-19T03:39:30;100665.44;;;22.98;53.31
9009;BME280;62813;51.424;6.762;2023-06-19T03:41:57;100681.94;;;22.96;53.08
9009;BME280;62813;51.424;6.762;2023-06-19T03:44:24;100679.44;;;23.04;53.29
9009;BME280;62813;51.424;6.762;2023-06-19T03:46:50;100684.53;;;22.93;53.64
9009;BME280;62813;51.424;6.762;2023-06-19T03:49:18;100689.53;;;22.79;54.10
9009;BME280;62813;51.424;6.762;2023-06-19T03:51:44;100687.28;;;22.81;53.92
9009;BME280;62813;51.424;6.762;2023-06-19T03:54:11;100703.94;;;22.86;53.81
9009;BME280;62813;51.424;6.762;2023-06-19T03:56:38;100693.09;;;22.83;54.23
9009;BME280;62813;51.424;6.762;2023-06-19T03:59:05;100705.28;;;22.80;54.45
9009;BME280;62813;51.424;6.762;2023-06-19T04:01:31;100698.28;;;22.76;53.98
9009;BME280;62813;51.424;6.762;2023-06-19T04:03:58;100713.03;;;22.82;54.34
9009;BME280;62813;51.424;6.762;2023-06-19T04:06:25;100710.09;;;22.87;54.05
9009;BME280;62813;51.424;6.762;2023-06-19T04:08:52;100720.41;;;22.73;54.43
9009;BME280;62813;51.424;6.762;2023-06-19T04:11:19;100733.78;;;22.69;54.67
9009;BME280;62813;51.424;6.762;2023-06-19T04:13:47;100727.84;;;22.63;54.90
9009;BME280;62813;51.424;6.762;2023-06-19T04:16:13;100735.91;;;22.63;54.98
9009;BME280;62813;51.424;6.762;2023-06-19T04:18:40;100742.84;;;22.64;55.07
9009;BME280;62813;51.424;6.762;2023-06-19T04:21:07;100743.63;;;22.65;55.54
9009;BME280;62813;51.424;6.762;2023-06-19T04:23:34;100751.50;;;22.58;55.55
9009;BME280;62813;51.424;6.762;2023-06-19T04:26:00;100748.13;;;22.61;55.43
9009;BME280;62813;51.424;6.762;2023-06-19T04:28:28;100745.59;;;22.52;55.81
9009;BME280;62813;51.424;6.762;2023-06-19T04:30:55;100750.97;;;22.52;55.56
9009;BME280;62813;51.424;6.762;2023-06-19T04:33:30;100752.94;;;22.55;55.54
9009;BME280;62813;51.424;6.762;2023-06-19T04:35:57;100769.28;;;22.62;55.66
9009;BME280;62813;51.424;6.762;2023-06-19T04:38:24;100753.66;;;22.80;54.96
9009;BME280;62813;51.424;6.762;2023-06-19T04:40:51;100770.22;;;22.82;55.06
9009;BME280;62813;51.424;6.762;2023-06-19T04:43:18;100741.91;;;22.85;55.09
9009;BME280;62813;51.424;6.762;2023-06-19T04:45:45;100760.72;;;22.85;54.93
9009;BME280;62813;51.424;6.762;2023-06-19T04:48:11;100762.91;;;22.95;54.26
9009;BME280;62813;51.424;6.762;2023-06-19T04:50:38;100768.91;;;23.04;54.01
9009;BME280;62813;51.424;6.762;2023-06-19T04:53:05;100771.19;;;23.18;53.74
9009;BME280;62813;51.424;6.762;2023-06-19T04:55:32;100765.69;;;23.14;54.21
9009;BME280;62813;51.424;6.762;2023-06-19T04:57:59;100773.34;;;23.12;54.83
9009;BME280;62813;51.424;6.762;2023-06-19T05:00:26;100770.03;;;23.03;54.44
9009;BME280;62813;51.424;6.762;2023-06-19T05:02:53;100775.78;;;22.89;54.92
9009;BME280;62813;51.424;6.762;2023-06-19T05:05:20;100777.22;;;22.71;55.88
9009;BME280;62813;51.424;6.762;2023-06-19T05:07:49;100780.19;;;22.82;55.09
9009;BME280;62813;51.424;6.762;2023-06-19T05:10:16;100785.03;;;23.04;54.79
9009;BME280;62813;51.424;6.762;2023-06-19T05:12:43;100788.66;;;22.96;54.89
9009;BME280;62813;51.424;6.762;2023-06-19T05:15:10;100789.69;;;22.91;54.95
9009;BME280;62813;51.424;6.762;2023-06-19T05:17:37;100788.25;;;22.82;55.50
9009;BME280;62813;51.424;6.762;2023-06-19T05:20:06;100795.97;;;22.83;55.99
9009;BME280;62813;51.424;6.762;2023-06-19T05:22:36;100796.91;;;22.75;56.22
9009;BME280;62813;51.424;6.762;2023-06-19T05:25:04;100814.94;;;22.75;56.03
9009;BME280;62813;51.424;6.762;2023-06-19T05:27:31;100804.94;;;22.87;56.33
9009;BME280;62813;51.424;6.762;2023-06-19T05:29:57;100818.38;;;22.87;56.07
9009;BME280;62813;51.424;6.762;2023-06-19T05:32:24;100807.06;;;22.82;56.31
9009;BME280;62813;51.424;6.762;2023-06-19T05:34:51;100806.41;;;22.85;56.51
9009;BME280;62813;51.424;6.762;2023-06-19T05:37:17;100810.31;;;22.87;56.18
9009;BME280;62813;51.424;6.762;2023-06-19T05:39:44;100807.19;;;22.85;55.94
9009;BME280;62813;51.424;6.762;2023-06-19T05:42:11;100811.13;;;22.76;56.62
9009;BME280;62813;51.424;6.762;2023-06-19T05:44:38;100818.84;;;22.77;56.62
9009;BME280;62813;51.424;6.762;2023-06-19T05:47:04;100810.34;;;22.75;56.40
9009;BME280;62813;51.424;6.762;2023-06-19T05:49:31;100813.81;;;22.63;56.59
9009;BME280;62813;51.424;6.762;2023-06-19T05:51:58;100812.13;;;22.71;56.61
9009;BME280;62813;51.424;6.762;2023-06-19T05:54:25;100814.16;;;22.62;56.83
9009;BME280;62813;51.424;6.762;2023-06-19T05:56:53;100817.66;;;22.62;56.68
9009;BME280;62813;51.424;6.762;2023-06-19T05:59:19;100818.00;;;22.49;56.68
9009;BME280;62813;51.424;6.762;2023-06-19T06:01:46;100821.47;;;22.49;57.09
9009;BME280;62813;51.424;6.762;2023-06-19T06:04:13;100830.88;;;22.31;57.44
9009;BME280;62813;51.424;6.762;2023-06-19T06:06:40;100815.84;;;22.54;57.01
9009;BME280;62813;51.424;6.762;2023-06-19T06:09:07;100814.06;;;22.46;57.54
9009;BME280;62813;51.424;6.762;2023-06-19T06:11:37;100828.72;;;22.61;56.95
9009;BME280;62813;51.424;6.762;2023-06-19T06:14:04;100823.09;;;22.66;56.66
9009;BME280;62813;51.424;6.762;2023-06-19T06:16:31;100827.81;;;22.69;56.25
9009;BME280;62813;51.424;6.762;2023-06-19T06:18:57;100837.31;;;22.67;56.46
9009;BME280;62813;51.424;6.762;2023-06-19T06:21:25;100836.97;;;22.68;56.64
9009;BME280;62813;51.424;6.762;2023-06-19T06:23:52;100845.13;;;22.84;56.34
9009;BME280;62813;51.424;6.762;2023-06-19T06:26:20;100836.19;;;22.80;56.13
9009;BME280;62813;51.424;6.762;2023-06-19T06:28:48;100846.41;;;22.74;56.52
9009;BME280;62813;51.424;6.762;2023-06-19T06:31:14;100844.03;;;22.85;56.18
9009;BME280;62813;51.424;6.762;2023-06-19T06:33:41;100846.72;;;22.85;56.51
9009;BME280;62813;51.424;6.762;2023-06-19T06:36:08;100841.28;;;22.97;56.21
9009;BME280;62813;51.424;6.762;2023-06-19T06:38:35;100842.91;;;22.86;56.54
9009;BME280;62813;51.424;6.762;2023-06-19T06:41:02;100845.91;;;22.84;56.77
9009;BME280;62813;51.424;6.762;2023-06-19T06:43:28;100841.56;;;22.80;57.27
9009;BME280;62813;51.424;6.762;2023-06-19T06:45:55;100841.03;;;22.74;57.44
9009;BME280;62813;51.424;6.762;2023-06-19T06:48:22;100845.91;;;22.72;56.91
9009;BME280;62813;51.424;6.762;2023-06-19T06:50:49;100859.84;;;22.62;58.16
9009;BME280;62813;51.424;6.762;2023-06-19T06:53:15;100856.25;;;22.70;57.83
9009;BME280;62813;51.424;6.762;2023-06-19T06:55:42;100859.72;;;22.58;58.03
9009;BME280;62813;51.424;6.762;2023-06-19T06:58:09;100865.47;;;22.45;58.64
9009;BME280;62813;51.424;6.762;2023-06-19T07:00:35;100869.16;;;22.40;59.18
9009;BME280;62813;51.424;6.762;2023-06-19T07:03:02;100878.09;;;22.32;59.59
9009;BME280;62813;51.424;6.762;2023-06-19T07:05:29;100880.47;;;22.34;60.02
9009;BME280;62813;51.424;6.762;2023-06-19T07:07:56;100895.56;;;22.26;60.48
9009;BME280;62813;51.424;6.762;2023-06-19T07:10:23;100881.44;;;22.29;60.13
9009;BME280;62813;51.424;6.762;2023-06-19T07:12:50;100895.09;;;22.24;60.65
9009;BME280;62813;51.424;6.762;2023-06-19T07:15:18;100896.69;;;22.25;60.27
9009;BME280;62813;51.424;6.762;2023-06-19T07:17:45;100903.94;;;22.24;61.61
9009;BME280;62813;51.424;6.762;2023-06-19T07:20:12;100910.53;;;22.15;61.49
9009;BME280;62813;51.424;6.762;2023-06-19T07:22:39;100908.75;;;22.31;60.47
9009;BME280;62813;51.424;6.762;2023-06-19T07:25:07;100918.38;;;22.32;60.36
9009;BME280;62813;51.424;6.762;2023-06-19T07:27:34;100907.75;;;22.23;61.16
9009;BME280;62813;51.424;6.762;2023-06-19T07:30:01;100918.63;;;22.27;60.91
9009;BME280;62813;51.424;6.762;2023-06-19T07:32:27;100913.34;;;22.31;60.72
9009;BME280;62813;51.424;6.762;2023-06-19T07:34:54;100903.41;;;22.43;60.89
9009;BME280;62813;51.424;6.762;2023-06-19T07:37:21;100903.16;;;22.48;60.36
9009;BME280;62813;51.424;6.762;2023-06-19T07:39:49;100908.84;;;22.47;60.68
9009;BME280;62813;51.424;6.762;2023-06-19T07:42:18;100901.72;;;22.51;60.20
9009;BME280;62813;51.424;6.762;2023-06-19T07:44:45;100893.41;;;22.56;60.12
9009;BME280;62813;51.424;6.762;2023-06-19T07:47:12;100909.72;;;22.63;59.57
9009;BME280;62813;51.424;6.762;2023-06-19T07:49:40;100911.53;;;22.71;59.70
9009;BME280;62813;51.424;6.762;2023-06-19T07:52:07;100910.31;;;22.81;58.92
9009;BME280;62813;51.424;6.762;2023-06-19T07:54:36;100917.03;;;22.62;59.74
9009;BME280;62813;51.424;6.762;2023-06-19T07:57:03;100925.09;;;22.75;59.33
9009;BME280;62813;51.424;6.762;2023-06-19T07:59:30;100914.09;;;22.68;59.51
9009;BME280;62813;51.424;6.762;2023-06-19T08:01:57;100921.25;;;22.63;60.23
9009;BME280;62813;51.424;6.762;2023-06-19T08:04:24;100918.69;;;22.55;59.95
9009;BME280;62813;51.424;6.762;2023-06-19T08:06:50;100926.88;;;22.58;60.47
9009;BME280;62813;51.424;6.762;2023-06-19T08:09:17;100920.34;;;22.72;59.88
9009;BME280;62813;51.424;6.762;2023-06-19T08:11:44;100922.50;;;22.90;59.43
9009;BME280;62813;51.424;6.762;2023-06-19T08:14:11;100915.53;;;23.01;58.51
9009;BME280;62813;51.424;6.762;2023-06-19T08:16:38;100919.59;;;23.23;57.94
9009;BME280;62813;51.424;6.762;2023-06-19T08:19:05;100893.75;;;23.47;57.29
9009;BME280;62813;51.424;6.762;2023-06-19T08:21:32;100914.25;;;23.51;56.93
9009;BME280;62813;51.424;6.762;2023-06-19T08:23:59;100909.06;;;23.74;56.52
9009;BME280;62813;51.424;6.762;2023-06-19T08:26:25;100911.56;;;23.67;56.06
9009;BME280;62813;51.424;6.762;2023-06-19T08:28:52;100916.97;;;23.67;56.22
9009;BME280;62813;51.424;6.762;2023-06-19T08:31:19;100903.16;;;23.68;56.14
9009;BME280;62813;51.424;6.762;2023-06-19T08:33:48;100898.75;;;23.48;56.11
9009;BME280;62813;51.424;6.762;2023-06-19T08:36:19;100902.81;;;23.54;56.08
9009;BME280;62813;51.424;6.762;2023-06-19T08:38:45;100919.28;;;23.53;56.38
9009;BME280;62813;51.424;6.762;2023-06-19T08:41:17;100903.94;;;23.53;55.93
9009;BME280;62813;51.424;6.762;2023-06-19T08:43:46;100911.69;;;23.43;55.35
9009;BME280;62813;51.424;6.762;2023-06-19T08:46:16;100916.69;;;23.28;54.89
9009;BME280;62813;51.424;6.762;2023-06-19T08:48:46;100923.06;;;23.24;54.81
9009;BME280;62813;51.424;6.762;2023-06-19T08:51:13;100906.50;;;23.22;54.96
9009;BME280;62813;51.424;6.762;2023-06-19T08:53:54;100922.13;;;23.32;54.53
9009;BME280;62813;51.424;6.762;2023-06-19T08:56:21;100919.09;;;23.33;54.73
9009;BME280;62813;51.424;6.762;2023-06-19T08:58:48;100917.56;;;23.48;54.75
9009;BME280;62813;51.424;6.762;2023-06-19T09:01:19;100910.53;;;23.56;55.41
9009;BME280;62813;51.424;6.762;2023-06-19T09:03:46;100913.16;;;23.68;54.39
9009;BME280;62813;51.424;6.762;2023-06-19T09:06:16;100920.09;;;23.69;54.23
9009;BME280;62813;51.424;6.762;2023-06-19T09:08:43;100919.94;;;23.93;54.09
9009;BME280;62813;51.424;6.762;2023-06-19T09:11:11;100924.72;;;24.00;53.61
9009;BME280;62813;51.424;6.762;2023-06-19T09:13:38;100924.38;;;23.86;53.02
9009;BME280;62813;51.424;6.762;2023-06-19T09:16:07;100906.59;;;23.97;52.85
9009;BME280;62813;51.424;6.762;2023-06-19T09:18:45;100917.59;;;24.07;51.71
9009;BME280;62813;51.424;6.762;2023-06-19T09:21:20;100925.50;;;24.00;52.43
9009;BME280;62813;51.424;6.762;2023-06-19T09:23:48;100933.06;;;24.10;51.66
9009;BME280;62813;51.424;6.762;2023-06-19T09:26:18;100927.34;;;24.28;51.73
9009;BME280;62813;51.424;6.762;2023-06-19T09:28:46;100932.13;;;24.34;51.42
9009;BME280;62813;51.424;6.762;2023-06-19T09:31:16;100926.31;;;24.32;50.83
9009;BME280;62813;51.424;6.762;2023-06-19T09:33:43;100930.03;;;24.43;50.19
9009;BME280;62813;51.424;6.762;2023-06-19T09:36:10;100936.03;;;24.37;49.01
9009;BME280;62813;51.424;6.762;2023-06-19T09:38:38;100934.28;;;24.44;49.52
9009;BME280;62813;51.424;6.762;2023-06-19T09:41:07;100956.16;;;24.59;49.70
9009;BME280;62813;51.424;6.762;2023-06-19T09:43:38;100924.56;;;24.56;49.98
9009;BME280;62813;51.424;6.762;2023-06-19T09:46:05;100942.53;;;24.51;49.28
9009;BME280;62813;51.424;6.762;2023-06-19T09:48:34;100948.81;;;24.40;49.58
9009;BME280;62813;51.424;6.762;2023-06-19T09:51:23;100940.81;;;24.43;49.19
9009;BME280;62813;51.424;6.762;2023-06-19T09:53:56;100956.03;;;24.36;49.35
9009;BME280;62813;51.424;6.762;2023-06-19T09:56:25;100948.81;;;24.40;50.09
9009;BME280;62813;51.424;6.762;2023-06-19T09:58:55;100961.69;;;24.46;49.26
9009;BME280;62813;51.424;6.762;2023-06-19T10:01:23;100972.63;;;24.38;48.38
9009;BME280;62813;51.424;6.762;2023-06-19T10:03:50;100954.78;;;24.65;48.13
9009;BME280;62813;51.424;6.762;2023-06-19T10:06:17;100965.00;;;24.91;47.20
9009;BME280;62813;51.424;6.762;2023-06-19T10:08:46;100950.84;;;25.13;47.43
9009;BME280;62813;51.424;6.762;2023-06-19T10:11:13;100952.06;;;25.35;46.76
9009;BME280;62813;51.424;6.762;2023-06-19T10:13:41;100950.41;;;25.30;46.56
9009;BME280;62813;51.424;6.762;2023-06-19T10:16:20;100960.88;;;25.32;46.53
9009;BME280;62813;51.424;6.762;2023-06-19T10:18:47;100966.25;;;25.32;46.97
9009;BME280;62813;51.424;6.762;2023-06-19T10:21:19;100959.00;;;25.36;46.36
9009;BME280;62813;51.424;6.762;2023-06-19T10:23:57;100954.78;;;25.35;46.43
9009;BME280;62813;51.424;6.762;2023-06-19T10:26:35;100953.03;;;25.46;46.36
9009;BME280;62813;51.424;6.762;2023-06-19T10:29:13;100956.09;;;25.44;44.68
9009;BME280;62813;51.424;6.762;2023-06-19T10:31:40;100955.88;;;25.14;44.25
9009;BME280;62813;51.424;6.762;2023-06-19T10:34:07;100962.56;;;25.20;45.17
9009;BME280;62813;51.424;6.762;2023-06-19T10:36:35;100962.91;;;25.19;45.11
9009;BME280;62813;51.424;6.762;2023-06-19T10:39:01;100959.31;;;25.31;45.16
9009;BME280;62813;51.424;6.762;2023-06-19T10:41:29;100949.28;;;25.31;44.88
9009;BME280;62813;51.424;6.762;2023-06-19T10:44:02;100943.81;;;25.27;43.89
9009;BME280;62813;51.424;6.762;2023-06-19T10:46:32;100935.31;;;25.25;43.63
9009;BME280;62813;51.424;6.762;2023-06-19T10:49:00;100942.19;;;25.23;43.87
9009;BME280;62813;51.424;6.762;2023-06-19T10:51:34;100945.78;;;25.11;44.43
9009;BME280;62813;51.424;6.762;2023-06-19T10:54:01;100950.63;;;25.21;44.17
9009;BME280;62813;51.424;6.762;2023-06-19T10:56:28;100951.50;;;25.25;43.71
9009;BME280;62813;51.424;6.762;2023-06-19T10:59:03;100936.50;;;25.28;42.28
9009;BME280;62813;51.424;6.762;2023-06-19T11:01:37;100940.41;;;25.31;42.84
9009;BME280;62813;51.424;6.762;2023-06-19T11:04:09;100938.97;;;25.37;42.84
9009;BME280;62813;51.424;6.762;2023-06-19T11:06:37;100936.16;;;25.49;42.28
9009;BME280;62813;51.424;6.762;2023-06-19T11:09:05;100931.22;;;25.54;41.52
9009;BME280;62813;51.424;6.762;2023-06-19T11:14:04;100950.00;;;25.67;40.85
9009;BME280;62813;51.424;6.762;2023-06-19T11:16:35;100942.38;;;25.72;40.58
9009;BME280;62813;51.424;6.762;2023-06-19T11:19:06;100930.44;;;25.73;40.56
9009;BME280;62813;51.424;6.762;2023-06-19T11:21:35;100937.34;;;25.71;41.45
9009;BME280;62813;51.424;6.762;2023-06-19T11:24:06;100945.31;;;25.63;41.48
9009;BME280;62813;51.424;6.762;2023-06-19T11:26:43;100926.31;;;25.79;42.00
9009;BME280;62813;51.424;6.762;2023-06-19T11:31:47;100937.56;;;26.27;40.34
9009;BME280;62813;51.424;6.762;2023-06-19T11:34:15;100929.56;;;26.34;40.01
9009;BME280;62813;51.424;6.762;2023-06-19T11:36:43;100929.59;;;26.37;40.17
9009;BME280;62813;51.424;6.762;2023-06-19T11:39:11;100925.41;;;26.40;39.53
9009;BME280;62813;51.424;6.762;2023-06-19T11:41:40;100931.31;;;26.49;38.72
9009;BME280;62813;51.424;6.762;2023-06-19T11:44:08;100935.53;;;26.47;39.02
9009;BME280;62813;51.424;6.762;2023-06-19T11:46:40;100927.53;;;26.27;39.35
9009;BME280;62813;51.424;6.762;2023-06-19T11:49:15;100918.97;;;26.25;39.44
9009;BME280;62813;51.424;6.762;2023-06-19T11:51:45;100920.78;;;26.41;39.54
9009;BME280;62813;51.424;6.762;2023-06-19T11:54:13;100933.84;;;26.38;38.34
9009;BME280;62813;51.424;6.762;2023-06-19T11:56:44;100919.53;;;26.34;38.29
9009;BME280;62813;51.424;6.762;2023-06-19T11:59:11;100939.16;;;26.31;37.01
9009;BME280;62813;51.424;6.762;2023-06-19T12:01:38;100928.03;;;26.14;36.79
9009;BME280;62813;51.424;6.762;2023-06-19T12:04:05;100929.66;;;26.41;37.48
9009;BME280;62813;51.424;6.762;2023-06-19T12:06:33;100937.25;;;26.58;37.98
9009;BME280;62813;51.424;6.762;2023-06-19T12:09:02;100930.16;;;26.77;37.12
9009;BME280;62813;51.424;6.762;2023-06-19T12:11:31;100927.97;;;26.86;36.63
9009;BME280;62813;51.424;6.762;2023-06-19T12:13:58;100940.72;;;26.85;36.66
9009;BME280;62813;51.424;6.762;2023-06-19T12:16:25;100924.25;;;26.94;37.42
9009;BME280;62813;51.424;6.762;2023-06-19T12:18:53;100923.63;;;27.07;35.60
9009;BME280;62813;51.424;6.762;2023-06-19T12:21:20;100900.25;;;26.92;35.99
9009;BME280;62813;51.424;6.762;2023-06-19T12:24:01;100921.78;;;26.85;35.80
9009;BME280;62813;51.424;6.762;2023-06-19T12:26:28;100912.91;;;26.88;35.58
9009;BME280;62813;51.424;6.762;2023-06-19T12:28:55;100927.63;;;26.87;36.15
9009;BME280;62813;51.424;6.762;2023-06-19T12:31:22;100931.41;;;26.83;36.60
9009;BME280;62813;51.424;6.762;2023-06-19T12:33:49;100923.31;;;26.56;37.51
9009;BME280;62813;51.424;6.762;2023-06-19T12:36:15;100917.53;;;26.58;37.10
9009;BME280;62813;51.424;6.762;2023-06-19T12:38:42;100929.97;;;26.36;37.54
9009;BME280;62813;51.424;6.762;2023-06-19T12:41:09;100923.94;;;26.46;37.65
9009;BME280;62813;51.424;6.762;2023-06-19T12:43:36;100926.50;;;26.35;37.58
9009;BME280;62813;51.424;6.762;2023-06-19T12:46:03;100932.47;;;26.48;37.11
9009;BME280;62813;51.424;6.762;2023-06-19T12:48:30;100927.47;;;26.50;37.02
9009;BME280;62813;51.424;6.762;2023-06-19T12:50:57;100930.44;;;26.42;36.68
9009;BME280;62813;51.424;6.762;2023-06-19T12:53:23;100926.69;;;26.50;37.15
9009;BME280;62813;51.424;6.762;2023-06-19T12:55:53;100932.88;;;26.50;37.69
9009;BME280;62813;51.424;6.762;2023-06-19T12:58:29;100927.56;;;26.57;37.98
9009;BME280;62813;51.424;6.762;2023-06-19T13:00:56;100950.59;;;26.74;37.73
9009;BME280;62813;51.424;6.762;2023-06-19T13:03:23;100920.16;;;26.81;37.06
9009;BME280;62813;51.424;6.762;2023-06-19T13:05:50;100923.81;;;26.92;36.99
9009;BME280;62813;51.424;6.762;2023-06-19T13:08:17;100915.44;;;27.00;37.08
9009;BME280;62813;51.424;6.762;2023-06-19T13:10:44;100915.00;;;26.98;37.03
9009;BME280;62813;51.424;6.762;2023-06-19T13:13:12;100921.44;;;26.87;37.21